sensor_id;sensor_type;location;lat;lon;timestamp;pressure;altitude;pressure_sealevel;temperature;humidity
46944;BME280;32678;43.852;25.952;2023-11-21T00:00:31;100897.63;;;10.74;69.74
46944;BME280;32678;43.852;25.952;2023-11-21T00:05:28;100894.22;;;10.71;69.08
46944;BME280;32678;43.852;25.952;2023-11-21T00:10:25;100902.44;;;10.60;70.20
46944;BME280;32678;43.852;25.952;2023-11-21T00:15:22;100898.81;;;10.64;69.28
46944;BME280;32678;43.852;25.952;2023-11-21T00:20:20;100899.44;;;10.71;68.51
46944;BME280;32678;43.852;25.952;2023-11-21T00:25:19;100911.94;;;10.63;68.92
46944;BME280;32678;43.852;25.952;2023-11-21T00:30:16;100901.00;;;10.78;68.21
46944;BME280;32678;43.852;25.952;2023-11-21T00:35:13;100894.94;;;10.76;68.24
46944;BME280;32678;43.852;25.952;2023-11-21T00:40:11;100891.34;;;10.51;68.76
46944;BME280;32678;43.852;25.952;2023-11-21T00:45:08;100886.25;;;10.46;68.87
46944;BME280;32678;43.852;25.952;2023-11-21T00:50:05;100899.44;;;10.43;69.21
46944;BME280;32678;43.852;25.952;2023-11-21T00:55:02;100891.53;;;10.45;68.53
46944;BME280;32678;43.852;25.952;2023-11-21T01:00:00;100890.00;;;10.37;68.41
46944;BME280;32678;43.852;25.952;2023-11-21T01:04:57;100895.56;;;10.27;68.44
46944;BME280;32678;43.852;25.952;2023-11-21T01:09:54;100893.34;;;10.12;68.77
46944;BME280;32678;43.852;25.952;2023-11-21T01:14:53;100896.09;;;10.07;68.52
46944;BME280;32678;43.852;25.952;2023-11-21T01:19:54;100895.13;;;9.80;69.21
46944;BME280;32678;43.852;25.952;2023-11-21T01:24:53;100886.03;;;9.93;68.53
46944;BME280;32678;43.852;25.952;2023-11-21T01:29:51;100889.50;;;9.94;68.43
46944;BME280;32678;43.852;25.952;2023-11-21T01:34:50;100873.28;;;9.81;68.81
46944;BME280;32678;43.852;25.952;2023-11-21T01:39:48;100866.16;;;9.86;68.70
46944;BME280;32678;43.852;25.952;2023-11-21T01:44:44;100854.53;;;9.96;68.25
46944;BME280;32678;43.852;25.952;2023-11-21T01:49:43;100865.44;;;9.81;68.59
46944;BME280;32678;43.852;25.952;2023-11-21T01:54:40;100867.22;;;9.79;68.75
46944;BME280;32678;43.852;25.952;2023-11-21T01:59:38;100865.22;;;9.87;68.40
46944;BME280;32678;43.852;25.952;2023-11-21T02:04:35;100860.44;;;9.72;68.92
46944;BME280;32678;43.852;25.952;2023-11-21T02:09:32;100871.53;;;9.82;68.12
46944;BME280;32678;43.852;25.952;2023-11-21T02:14:30;100866.22;;;9.83;67.95
46944;BME280;32678;43.852;25.952;2023-11-21T02:19:28;100855.16;;;9.74;68.06
46944;BME280;32678;43.852;25.952;2023-11-21T02:24:27;100854.28;;;9.73;67.83
46944;BME280;32678;43.852;25.952;2023-11-21T02:29:24;100852.50;;;9.75;67.75
46944;BME280;32678;43.852;25.952;2023-11-21T02:34:24;100862.75;;;9.83;67.38
46944;BME280;32678;43.852;25.952;2023-11-21T02:39:20;100851.34;;;9.53;68.30
46944;BME280;32678;43.852;25.952;2023-11-21T02:44:19;100855.50;;;9.62;68.05
46944;BME280;32678;43.852;25.952;2023-11-21T02:49:15;100864.44;;;9.53;68.11
46944;BME280;32678;43.852;25.952;2023-11-21T02:54:12;100861.03;;;9.51;68.16
46944;BME280;32678;43.852;25.952;2023-11-21T02:59:09;100858.28;;;9.55;68.14
46944;BME280;32678;43.852;25.952;2023-11-21T03:04:06;100853.75;;;9.62;67.93
46944;BME280;32678;43.852;25.952;2023-11-21T03:09:03;100861.28;;;9.42;68.69
46944;BME280;32678;43.852;25.952;2023-11-21T03:14:00;100862.78;;;9.50;67.99
46944;BME280;32678;43.852;25.952;2023-11-21T03:18:56;100839.97;;;9.23;68.74
46944;BME280;32678;43.852;25.952;2023-11-21T03:23:54;100866.56;;;9.39;68.54
46944;BME280;32678;43.852;25.952;2023-11-21T03:28:51;100859.47;;;9.44;68.43
46944;BME280;32678;43.852;25.952;2023-11-21T03:33:50;100864.88;;;9.38;68.90
46944;BME280;32678;43.852;25.952;2023-11-21T03:38:48;100870.22;;;9.33;68.97
46944;BME280;32678;43.852;25.952;2023-11-21T03:43:46;100877.84;;;9.42;68.42
46944;BME280;32678;43.852;25.952;2023-11-21T03:48:43;100874.38;;;9.40;68.09
46944;BME280;32678;43.852;25.952;2023-11-21T03:53:40;100866.81;;;9.30;68.65
46944;BME280;32678;43.852;25.952;2023-11-21T03:58:39;100853.25;;;9.14;68.58
46944;BME280;32678;43.852;25.952;2023-11-21T04:03:36;100869.66;;;9.22;68.89
46944;BME280;32678;43.852;25.952;2023-11-21T04:08:34;100872.41;;;9.16;68.92
46944;BME280;32678;43.852;25.952;2023-11-21T04:13:31;100889.75;;;9.20;68.71
46944;BME280;32678;43.852;25.952;2023-11-21T04:18:28;100882.13;;;9.11;68.75
46944;BME280;32678;43.852;25.952;2023-11-21T04:23:28;100885.28;;;9.24;68.56
46944;BME280;32678;43.852;25.952;2023-11-21T04:28:25;100879.22;;;9.23;68.26
46944;BME280;32678;43.852;25.952;2023-11-21T04:33:21;100880.97;;;9.23;68.35
46944;BME280;32678;43.852;25.952;2023-11-21T04:38:18;100870.88;;;9.41;67.55
46944;BME280;32678;43.852;25.952;2023-11-21T04:43:16;100871.78;;;9.40;67.44
46944;BME280;32678;43.852;25.952;2023-11-21T04:48:12;100883.22;;;9.36;67.40
46944;BME280;32678;43.852;25.952;2023-11-21T04:53:10;100893.03;;;9.62;66.32
46944;BME280;32678;43.852;25.952;2023-11-21T04:58:10;100889.69;;;9.55;65.92
46944;BME280;32678;43.852;25.952;2023-11-21T05:03:09;100891.41;;;9.56;65.89
46944;BME280;32678;43.852;25.952;2023-11-21T05:08:06;100901.66;;;9.64;65.65
46944;BME280;32678;43.852;25.952;2023-11-21T05:13:04;100886.03;;;9.63;65.84
46944;BME280;32678;43.852;25.952;2023-11-21T05:18:00;100884.91;;;9.71;64.96
46944;BME280;32678;43.852;25.952;2023-11-21T05:22:58;100888.94;;;9.83;64.77
46944;BME280;32678;43.852;25.952;2023-11-21T05:27:55;100879.06;;;9.62;65.71
46944;BME280;32678;43.852;25.952;2023-11-21T05:32:52;100890.88;;;9.76;64.94
46944;BME280;32678;43.852;25.952;2023-11-21T05:37:51;100891.13;;;9.67;65.18
46944;BME280;32678;43.852;25.952;2023-11-21T05:42:49;100890.06;;;9.74;64.88
46944;BME280;32678;43.852;25.952;2023-11-21T05:47:47;100891.56;;;9.83;64.80
46944;BME280;32678;43.852;25.952;2023-11-21T05:52:47;100897.34;;;9.94;66.94
46944;BME280;32678;43.852;25.952;2023-11-21T05:57:45;100912.75;;;10.06;68.23
46944;BME280;32678;43.852;25.952;2023-11-21T06:03:01;100914.31;;;9.81;70.49
46944;BME280;32678;43.852;25.952;2023-11-21T06:07:59;100919.09;;;9.65;71.69
46944;BME280;32678;43.852;25.952;2023-11-21T06:12:57;100938.06;;;9.41;72.34
46944;BME280;32678;43.852;25.952;2023-11-21T06:17:58;100942.63;;;9.33;73.13
46944;BME280;32678;43.852;25.952;2023-11-21T06:22:57;100918.84;;;9.08;74.00
46944;BME280;32678;43.852;25.952;2023-11-21T06:28:07;100945.66;;;9.16;74.50
46944;BME280;32678;43.852;25.952;2023-11-21T06:33:24;100942.56;;;9.36;73.67
46944;BME280;32678;43.852;25.952;2023-11-21T06:38:24;100938.19;;;9.36;73.00
46944;BME280;32678;43.852;25.952;2023-11-21T06:43:22;100945.03;;;9.42;72.29
46944;BME280;32678;43.852;25.952;2023-11-21T06:48:20;100942.41;;;9.42;72.37
46944;BME280;32678;43.852;25.952;2023-11-21T06:53:19;100938.91;;;9.43;72.93
46944;BME280;32678;43.852;25.952;2023-11-21T06:58:19;100943.69;;;9.60;73.37
46944;BME280;32678;43.852;25.952;2023-11-21T07:03:16;100948.94;;;9.92;73.15
46944;BME280;32678;43.852;25.952;2023-11-21T07:08:15;100946.56;;;10.14;72.67
46944;BME280;32678;43.852;25.952;2023-11-21T07:13:29;100940.56;;;10.10;71.79
46944;BME280;32678;43.852;25.952;2023-11-21T07:18:35;100920.63;;;10.05;71.12
46944;BME280;32678;43.852;25.952;2023-11-21T07:23:38;100933.31;;;10.21;70.80
46944;BME280;32678;43.852;25.952;2023-11-21T07:28:49;100933.38;;;10.48;70.13
46944;BME280;32678;43.852;25.952;2023-11-21T07:33:49;100933.97;;;10.57;69.54
46944;BME280;32678;43.852;25.952;2023-11-21T07:38:47;100939.25;;;10.56;69.28
46944;BME280;32678;43.852;25.952;2023-11-21T07:43:46;100929.00;;;10.76;68.63
46944;BME280;32678;43.852;25.952;2023-11-21T07:48:46;100928.03;;;11.08;68.10
46944;BME280;32678;43.852;25.952;2023-11-21T07:53:54;100909.38;;;11.15;68.00
46944;BME280;32678;43.852;25.952;2023-11-21T08:04:11;100923.00;;;11.53;66.99
46944;BME280;32678;43.852;25.952;2023-11-21T08:09:12;100922.63;;;11.63;66.74
46944;BME280;32678;43.852;25.952;2023-11-21T08:14:11;100928.69;;;11.65;64.08
46944;BME280;32678;43.852;25.952;2023-11-21T08:19:12;100928.69;;;11.65;62.22
46944;BME280;32678;43.852;25.952;2023-11-21T08:24:09;100937.19;;;11.73;61.99
46944;BME280;32678;43.852;25.952;2023-11-21T08:29:07;100938.38;;;11.90;61.75
46944;BME280;32678;43.852;25.952;2023-11-21T08:34:06;100928.91;;;12.09;61.96
46944;BME280;32678;43.852;25.952;2023-11-21T08:39:05;100926.72;;;12.22;62.31
46944;BME280;32678;43.852;25.952;2023-11-21T08:44:02;100918.41;;;12.32;62.44
46944;BME280;32678;43.852;25.952;2023-11-21T08:49:03;100916.38;;;12.40;62.82
46944;BME280;32678;43.852;25.952;2023-11-21T08:54:00;100912.88;;;12.40;62.11
46944;BME280;32678;43.852;25.952;2023-11-21T08:59:00;100905.66;;;12.45;61.50
46944;BME280;32678;43.852;25.952;2023-11-21T09:03:58;100893.97;;;12.52;60.74
46944;BME280;32678;43.852;25.952;2023-11-21T09:08:56;100897.06;;;12.63;61.21
46944;BME280;32678;43.852;25.952;2023-11-21T09:13:53;100895.06;;;12.70;61.60
46944;BME280;32678;43.852;25.952;2023-11-21T09:18:53;100897.69;;;12.70;62.51
46944;BME280;32678;43.852;25.952;2023-11-21T09:23:58;100883.59;;;12.71;62.92
46944;BME280;32678;43.852;25.952;2023-11-21T09:28:55;100875.47;;;12.77;63.19
46944;BME280;32678;43.852;25.952;2023-11-21T09:33:52;100877.84;;;12.83;63.14
46944;BME280;32678;43.852;25.952;2023-11-21T09:38:49;100866.28;;;12.87;62.31
46944;BME280;32678;43.852;25.952;2023-11-21T09:43:47;100873.50;;;13.03;61.64
46944;BME280;32678;43.852;25.952;2023-11-21T09:48:46;100866.13;;;13.33;59.98
46944;BME280;32678;43.852;25.952;2023-11-21T09:53:45;100855.66;;;13.52;58.77
46944;BME280;32678;43.852;25.952;2023-11-21T09:58:44;100853.75;;;13.56;58.58
46944;BME280;32678;43.852;25.952;2023-11-21T10:03:47;100836.00;;;13.59;58.29
46944;BME280;32678;43.852;25.952;2023-11-21T10:08:54;100824.28;;;13.66;57.83
46944;BME280;32678;43.852;25.952;2023-11-21T10:13:54;100815.31;;;13.70;57.88
46944;BME280;32678;43.852;25.952;2023-11-21T10:18:54;100814.53;;;13.68;57.55
46944;BME280;32678;43.852;25.952;2023-11-21T10:24:07;100816.88;;;13.74;57.13
46944;BME280;32678;43.852;25.952;2023-11-21T10:29:05;100823.47;;;13.84;56.13
46944;BME280;32678;43.852;25.952;2023-11-21T10:34:13;100804.69;;;13.92;56.28
46944;BME280;32678;43.852;25.952;2023-11-21T10:39:14;100803.59;;;13.96;56.21
46944;BME280;32678;43.852;25.952;2023-11-21T10:44:16;100798.25;;;13.98;55.91
46944;BME280;32678;43.852;25.952;2023-11-21T10:49:17;100784.88;;;14.02;55.97
46944;BME280;32678;43.852;25.952;2023-11-21T10:54:17;100792.06;;;13.99;56.59
46944;BME280;32678;43.852;25.952;2023-11-21T10:59:14;100786.94;;;13.96;56.95
46944;BME280;32678;43.852;25.952;2023-11-21T11:04:11;100780.00;;;13.93;57.33
46944;BME280;32678;43.852;25.952;2023-11-21T11:09:13;100770.03;;;14.00;56.73
46944;BME280;32678;43.852;25.952;2023-11-21T11:14:17;100761.91;;;14.04;56.85
46944;BME280;32678;43.852;25.952;2023-11-21T11:19:31;100755.44;;;14.11;56.92
46944;BME280;32678;43.852;25.952;2023-11-21T11:24:36;100750.13;;;14.30;53.91
46944;BME280;32678;43.852;25.952;2023-11-21T11:29:41;100748.13;;;14.35;54.53
46944;BME280;32678;43.852;25.952;2023-11-21T11:34:41;100736.38;;;14.42;54.05
46944;BME280;32678;43.852;25.952;2023-11-21T11:39:41;100723.69;;;14.50;53.12
46944;BME280;32678;43.852;25.952;2023-11-21T11:44:49;100725.78;;;14.61;51.72
46944;BME280;32678;43.852;25.952;2023-11-21T11:49:58;100716.91;;;14.62;52.24
46944;BME280;32678;43.852;25.952;2023-11-21T11:54:56;100710.03;;;14.59;52.75
46944;BME280;32678;43.852;25.952;2023-11-21T12:00:10;100705.84;;;14.55;53.24
46944;BME280;32678;43.852;25.952;2023-11-21T12:05:19;100699.31;;;14.62;53.47
46944;BME280;32678;43.852;25.952;2023-11-21T12:10:18;100694.13;;;14.61;53.52
46944;BME280;32678;43.852;25.952;2023-11-21T12:15:17;100687.75;;;14.65;51.97
46944;BME280;32678;43.852;25.952;2023-11-21T12:20:20;100680.47;;;14.70;51.70
46944;BME280;32678;43.852;25.952;2023-11-21T12:25:28;100673.69;;;14.64;51.68
46944;BME280;32678;43.852;25.952;2023-11-21T12:30:29;100672.53;;;14.53;52.03
46944;BME280;32678;43.852;25.952;2023-11-21T12:35:28;100669.66;;;14.40;52.37
46944;BME280;32678;43.852;25.952;2023-11-21T12:40:29;100653.31;;;14.32;51.87
46944;BME280;32678;43.852;25.952;2023-11-21T12:45:26;100645.81;;;14.24;51.13
46944;BME280;32678;43.852;25.952;2023-11-21T12:50:24;100636.81;;;14.28;51.55
46944;BME280;32678;43.852;25.952;2023-11-21T12:55:29;100629.69;;;14.30;51.88
46944;BME280;32678;43.852;25.952;2023-11-21T13:00:28;100630.84;;;14.25;51.85
46944;BME280;32678;43.852;25.952;2023-11-21T13:05:28;100625.94;;;14.35;51.82
46944;BME280;32678;43.852;25.952;2023-11-21T13:10:26;100629.00;;;14.44;51.98
46944;BME280;32678;43.852;25.952;2023-11-21T13:15:25;100619.56;;;14.40;51.04
46944;BME280;32678;43.852;25.952;2023-11-21T13:20:24;100620.41;;;14.41;50.87
46944;BME280;32678;43.852;25.952;2023-11-21T13:25:21;100620.94;;;14.47;50.83
46944;BME280;32678;43.852;25.952;2023-11-21T13:30:20;100613.97;;;14.46;50.68
46944;BME280;32678;43.852;25.952;2023-11-21T13:35:22;100614.41;;;14.54;50.96
46944;BME280;32678;43.852;25.952;2023-11-21T13:40:27;100604.78;;;14.53;51.24
46944;BME280;32678;43.852;25.952;2023-11-21T13:45:24;100597.41;;;14.43;51.44
46944;BME280;32678;43.852;25.952;2023-11-21T13:50:28;100611.16;;;14.49;51.66
46944;BME280;32678;43.852;25.952;2023-11-21T13:55:25;100613.81;;;14.49;52.23
46944;BME280;32678;43.852;25.952;2023-11-21T14:00:29;100616.69;;;14.45;52.87
46944;BME280;32678;43.852;25.952;2023-11-21T14:05:45;100614.34;;;14.39;53.84
46944;BME280;32678;43.852;25.952;2023-11-21T14:10:44;100616.06;;;14.40;54.38
46944;BME280;32678;43.852;25.952;2023-11-21T14:15:46;100602.59;;;14.27;54.89
46944;BME280;32678;43.852;25.952;2023-11-21T14:20:49;100618.75;;;14.38;55.21
46944;BME280;32678;43.852;25.952;2023-11-21T14:25:47;100599.25;;;14.23;55.58
46944;BME280;32678;43.852;25.952;2023-11-21T14:30:46;100621.16;;;14.25;56.49
46944;BME280;32678;43.852;25.952;2023-11-21T14:35:43;100621.22;;;14.24;57.04
46944;BME280;32678;43.852;25.952;2023-11-21T14:40:40;100629.97;;;14.24;57.24
46944;BME280;32678;43.852;25.952;2023-11-21T14:45:38;100620.53;;;14.20;57.74
46944;BME280;32678;43.852;25.952;2023-11-21T14:50:41;100628.66;;;14.16;58.23
46944;BME280;32678;43.852;25.952;2023-11-21T14:55:59;100633.06;;;14.15;58.84
46944;BME280;32678;43.852;25.952;2023-11-21T15:00:58;100624.53;;;14.10;59.56
46944;BME280;32678;43.852;25.952;2023-11-21T15:05:59;100626.56;;;14.05;60.59
46944;BME280;32678;43.852;25.952;2023-11-21T15:11:14;100627.69;;;14.00;60.77
46944;BME280;32678;43.852;25.952;2023-11-21T15:16:14;100631.94;;;13.85;61.66
46944;BME280;32678;43.852;25.952;2023-11-21T15:21:14;100634.41;;;13.88;61.38
46944;BME280;32678;43.852;25.952;2023-11-21T15:26:11;100631.19;;;14.00;61.19
46944;BME280;32678;43.852;25.952;2023-11-21T15:31:11;100609.66;;;13.73;62.10
46944;BME280;32678;43.852;25.952;2023-11-21T15:36:13;100620.81;;;13.78;62.63
46944;BME280;32678;43.852;25.952;2023-11-21T15:41:11;100622.63;;;13.78;62.57
46944;BME280;32678;43.852;25.952;2023-11-21T15:46:08;100603.34;;;13.59;62.83
46944;BME280;32678;43.852;25.952;2023-11-21T15:51:05;100622.47;;;13.81;61.96
46944;BME280;32678;43.852;25.952;2023-11-21T15:56:05;100624.75;;;13.70;62.27
46944;BME280;32678;43.852;25.952;2023-11-21T16:01:06;100597.59;;;13.51;62.45
46944;BME280;32678;43.852;25.952;2023-11-21T16:06:05;100607.69;;;13.60;62.31
46944;BME280;32678;43.852;25.952;2023-11-21T16:11:06;100607.41;;;13.66;62.04
46944;BME280;32678;43.852;25.952;2023-11-21T16:16:05;100606.91;;;13.58;62.06
46944;BME280;32678;43.852;25.952;2023-11-21T16:21:02;100599.47;;;13.49;62.14
46944;BME280;32678;43.852;25.952;2023-11-21T16:25:59;100607.03;;;13.55;61.95
46944;BME280;32678;43.852;25.952;2023-11-21T16:30:56;100598.16;;;13.57;61.71
46944;BME280;32678;43.852;25.952;2023-11-21T16:35:53;100604.13;;;13.61;61.82
46944;BME280;32678;43.852;25.952;2023-11-21T16:40:51;100596.44;;;13.56;61.91
46944;BME280;32678;43.852;25.952;2023-11-21T16:45:52;100592.31;;;13.51;62.00
46944;BME280;32678;43.852;25.952;2023-11-21T16:50:54;100583.44;;;13.53;62.17
46944;BME280;32678;43.852;25.952;2023-11-21T16:55:50;100590.31;;;13.56;62.30
46944;BME280;32678;43.852;25.952;2023-11-21T17:00:47;100590.31;;;13.56;62.16
46944;BME280;32678;43.852;25.952;2023-11-21T17:05:46;100586.78;;;13.57;62.15
46944;BME280;32678;43.852;25.952;2023-11-21T17:10:46;100587.69;;;13.56;61.89
46944;BME280;32678;43.852;25.952;2023-11-21T17:15:49;100580.94;;;13.50;61.86
46944;BME280;32678;43.852;25.952;2023-11-21T17:20:45;100577.38;;;13.51;61.23
46944;BME280;32678;43.852;25.952;2023-11-21T17:25:42;100574.75;;;13.51;60.65
46944;BME280;32678;43.852;25.952;2023-11-21T17:30:40;100575.59;;;13.52;60.00
46944;BME280;32678;43.852;25.952;2023-11-21T17:35:38;100569.41;;;13.53;59.92
46944;BME280;32678;43.852;25.952;2023-11-21T17:40:35;100565.41;;;13.44;59.97
46944;BME280;32678;43.852;25.952;2023-11-21T17:45:32;100564.44;;;13.47;59.89
46944;BME280;32678;43.852;25.952;2023-11-21T17:50:29;100562.72;;;13.45;59.62
46944;BME280;32678;43.852;25.952;2023-11-21T17:55:27;100562.66;;;13.47;59.68
46944;BME280;32678;43.852;25.952;2023-11-21T18:00:24;100562.44;;;13.52;59.82
46944;BME280;32678;43.852;25.952;2023-11-21T18:05:22;100551.72;;;13.55;60.09
46944;BME280;32678;43.852;25.952;2023-11-21T18:10:20;100532.81;;;13.47;59.89
46944;BME280;32678;43.852;25.952;2023-11-21T18:15:17;100546.63;;;13.52;60.32
46944;BME280;32678;43.852;25.952;2023-11-21T18:20:15;100539.66;;;13.51;61.06
46944;BME280;32678;43.852;25.952;2023-11-21T18:25:12;100541.13;;;13.56;61.23
46944;BME280;32678;43.852;25.952;2023-11-21T18:30:10;100541.19;;;13.55;61.83
46944;BME280;32678;43.852;25.952;2023-11-21T18:35:07;100538.75;;;13.33;63.74
46944;BME280;32678;43.852;25.952;2023-11-21T18:40:04;100537.47;;;13.04;65.51
46944;BME280;32678;43.852;25.952;2023-11-21T18:45:05;100539.88;;;13.09;65.58
46944;BME280;32678;43.852;25.952;2023-11-21T18:50:04;100538.06;;;12.90;65.81
46944;BME280;32678;43.852;25.952;2023-11-21T18:55:01;100539.16;;;12.86;66.64
46944;BME280;32678;43.852;25.952;2023-11-21T18:59:59;100537.31;;;12.88;67.03
46944;BME280;32678;43.852;25.952;2023-11-21T19:04:55;100534.09;;;12.82;67.67
46944;BME280;32678;43.852;25.952;2023-11-21T19:09:53;100536.22;;;12.74;68.86
46944;BME280;32678;43.852;25.952;2023-11-21T19:14:51;100548.25;;;12.61;70.05
46944;BME280;32678;43.852;25.952;2023-11-21T19:19:48;100547.41;;;12.40;71.09
46944;BME280;32678;43.852;25.952;2023-11-21T19:24:45;100549.44;;;12.33;72.26
46944;BME280;32678;43.852;25.952;2023-11-21T19:29:43;100550.59;;;12.46;71.91
46944;BME280;32678;43.852;25.952;2023-11-21T19:34:39;100544.31;;;12.50;71.78
46944;BME280;32678;43.852;25.952;2023-11-21T19:39:37;100539.91;;;12.51;71.81
46944;BME280;32678;43.852;25.952;2023-11-21T19:44:33;100528.75;;;12.65;71.86
46944;BME280;32678;43.852;25.952;2023-11-21T19:49:33;100521.22;;;12.76;71.44
46944;BME280;32678;43.852;25.952;2023-11-21T19:54:33;100505.03;;;12.85;71.01
46944;BME280;32678;43.852;25.952;2023-11-21T19:59:33;100499.19;;;12.78;71.41
46944;BME280;32678;43.852;25.952;2023-11-21T20:04:30;100505.56;;;12.54;72.24
46944;BME280;32678;43.852;25.952;2023-11-21T20:09:43;100504.28;;;12.63;71.72
46944;BME280;32678;43.852;25.952;2023-11-21T20:14:40;100498.81;;;12.48;71.70
46944;BME280;32678;43.852;25.952;2023-11-21T20:19:38;100502.06;;;12.53;71.87
46944;BME280;32678;43.852;25.952;2023-11-21T20:24:34;100497.19;;;12.46;72.16
46944;BME280;32678;43.852;25.952;2023-11-21T20:29:32;100501.16;;;12.15;73.25
46944;BME280;32678;43.852;25.952;2023-11-21T20:34:32;100502.91;;;11.75;75.15
46944;BME280;32678;43.852;25.952;2023-11-21T20:39:29;100498.19;;;11.61;76.53
46944;BME280;32678;43.852;25.952;2023-11-21T20:44:26;100500.38;;;11.71;76.40
46944;BME280;32678;43.852;25.952;2023-11-21T20:49:23;100489.31;;;11.85;75.63
46944;BME280;32678;43.852;25.952;2023-11-21T20:54:31;100465.47;;;11.90;74.32
46944;BME280;32678;43.852;25.952;2023-11-21T20:59:28;100492.53;;;12.12;73.71
46944;BME280;32678;43.852;25.952;2023-11-21T21:04:25;100490.38;;;12.22;73.25
46944;BME280;32678;43.852;25.952;2023-11-21T21:09:22;100495.06;;;12.34;72.73
46944;BME280;32678;43.852;25.952;2023-11-21T21:14:19;100493.47;;;12.31;72.59
46944;BME280;32678;43.852;25.952;2023-11-21T21:19:18;100490.81;;;12.31;72.29
46944;BME280;32678;43.852;25.952;2023-11-21T21:24:16;100489.13;;;12.10;72.83
46944;BME280;32678;43.852;25.952;2023-11-21T21:29:13;100493.78;;;12.03;73.22
46944;BME280;32678;43.852;25.952;2023-11-21T21:34:10;100492.47;;;11.93;72.79
46944;BME280;32678;43.852;25.952;2023-11-21T21:39:10;100502.59;;;11.82;73.50
46944;BME280;32678;43.852;25.952;2023-11-21T21:44:10;100510.16;;;12.10;72.16
46944;BME280;32678;43.852;25.952;2023-11-21T21:49:07;100505.50;;;12.17;71.94
46944;BME280;32678;43.852;25.952;2023-11-21T21:54:05;100520.16;;;12.02;71.97
46944;BME280;32678;43.852;25.952;2023-11-21T21:59:03;100519.06;;;11.86;72.47
46944;BME280;32678;43.852;25.952;2023-11-21T22:04:00;100520.97;;;11.60;74.59
46944;BME280;32678;43.852;25.952;2023-11-21T22:08:57;100512.06;;;11.86;74.01
46944;BME280;32678;43.852;25.952;2023-11-21T22:13:55;100489.06;;;11.69;75.63
46944;BME280;32678;43.852;25.952;2023-11-21T22:18:52;100498.31;;;11.80;75.67
46944;BME280;32678;43.852;25.952;2023-11-21T22:23:51;100505.75;;;11.90;75.22
46944;BME280;32678;43.852;25.952;2023-11-21T22:28:48;100502.78;;;11.78;75.00
46944;BME280;32678;43.852;25.952;2023-11-21T22:33:47;100501.34;;;11.69;75.38
46944;BME280;32678;43.852;25.952;2023-11-21T22:38:43;100489.22;;;11.66;75.99
46944;BME280;32678;43.852;25.952;2023-11-21T22:43:41;100502.47;;;11.42;77.08
46944;BME280;32678;43.852;25.952;2023-11-21T22:48:38;100492.91;;;11.41;77.50
46944;BME280;32678;43.852;25.952;2023-11-21T22:53:35;100491.19;;;11.40;76.96
46944;BME280;32678;43.852;25.952;2023-11-21T22:58:32;100503.09;;;11.48;76.56
46944;BME280;32678;43.852;25.952;2023-11-21T23:03:30;100486.06;;;11.37;76.24
46944;BME280;32678;43.852;25.952;2023-11-21T23:08:26;100503.94;;;11.49;76.78
46944;BME280;32678;43.852;25.952;2023-11-21T23:13:25;100508.69;;;11.39;77.03
46944;BME280;32678;43.852;25.952;2023-11-21T23:18:23;100504.13;;;11.44;77.36
46944;BME280;32678;43.852;25.952;2023-11-21T23:23:24;100509.34;;;11.66;76.97
46944;BME280;32678;43.852;25.952;2023-11-21T23:28:21;100514.25;;;11.53;76.95
46944;BME280;32678;43.852;25.952;2023-11-21T23:33:18;100510.69;;;11.54;77.41
46944;BME280;32678;43.852;25.952;2023-11-21T23:38:15;100489.84;;;11.51;77.03
46944;BME280;32678;43.852;25.952;2023-11-21T23:43:13;100518.38;;;11.59;77.20
46944;BME280;32678;43.852;25.952;2023-11-21T23:48:10;100513.69;;;11.67;76.99
46944;BME280;32678;43.852;25.952;2023-11-21T23:53:07;100525.97;;;11.66;77.19
46944;BME280;32678;43.852;25.952;2023-11-21T23:58:04;100539.81;;;11.70;77.36
